createdAt,value
2022-09-23T00:01:14.905Z,55.60
2022-09-23T00:03:45.534Z,55.70
2022-09-23T00:06:14.777Z,55.70
2022-09-23T00:08:42.204Z,55.80
2022-09-23T00:11:15.104Z,55.80
2022-09-23T00:13:44.437Z,55.80
2022-09-23T00:16:15.149Z,55.80
2022-09-23T00:18:42.554Z,55.90
2022-09-23T00:21:12.430Z,55.90
2022-09-23T00:23:41.188Z,56.00
2022-09-23T00:26:10.256Z,56.10
2022-09-23T00:28:38.429Z,56.10
2022-09-23T00:31:08.023Z,56.20
2022-09-23T00:33:35.150Z,56.20
2022-09-23T00:36:04.679Z,56.20
2022-09-23T00:38:31.927Z,56.20
2022-09-23T00:40:59.059Z,56.10
2022-09-23T00:43:55.833Z,56.20
2022-09-23T00:46:28.652Z,56.20
2022-09-23T00:49:06.545Z,56.20
2022-09-23T00:51:38.659Z,56.30
2022-09-23T00:54:06.605Z,56.30
2022-09-23T00:56:34.689Z,56.30
2022-09-23T00:59:01.871Z,56.30
2022-09-23T01:01:28.876Z,56.30
2022-09-23T01:03:57.655Z,56.40
2022-09-23T01:06:25.250Z,56.50
2022-09-23T01:08:52.632Z,56.40
2022-09-23T01:11:40.223Z,56.50
2022-09-23T01:14:32.466Z,56.60
2022-09-23T01:17:16.157Z,56.70
2022-09-23T01:19:45.960Z,56.70
2022-09-23T01:22:36.187Z,56.70
2022-09-23T01:25:14.927Z,56.80
2022-09-23T01:28:00.361Z,56.90
2022-09-23T01:30:57.999Z,56.90
2022-09-23T01:34:01.631Z,56.90
2022-09-23T01:36:40.399Z,57.10
2022-09-23T01:39:25.519Z,57.00
2022-09-23T01:41:55.662Z,57.10
2022-09-23T01:44:43.212Z,57.10
2022-09-23T01:47:18.773Z,57.20
2022-09-23T01:50:24.171Z,57.20
2022-09-23T01:52:55.033Z,57.30
2022-09-23T01:55:32.270Z,57.30
2022-09-23T01:58:22.210Z,57.30
2022-09-23T02:01:08.571Z,57.30
2022-09-23T02:03:45.166Z,57.40
2022-09-23T02:06:23.709Z,57.40
2022-09-23T02:09:04.884Z,57.30
2022-09-23T02:11:36.380Z,57.40
2022-09-23T02:14:19.596Z,57.50
2022-09-23T02:16:56.104Z,57.50
2022-09-23T02:19:32.278Z,57.50
2022-09-23T02:22:34.570Z,57.50
2022-09-23T02:25:03.281Z,57.60
2022-09-23T02:27:39.127Z,57.50
2022-09-23T02:30:15.723Z,57.60
2022-09-23T02:33:00.629Z,57.70
2022-09-23T02:35:34.742Z,57.70
2022-09-23T02:38:33.470Z,57.60
2022-09-23T02:41:42.161Z,57.60
2022-09-23T02:44:15.771Z,57.60
2022-09-23T02:46:45.571Z,57.60
2022-09-23T02:49:38.800Z,57.60
2022-09-23T02:52:07.709Z,57.70
2022-09-23T02:54:35.518Z,57.60
2022-09-23T02:57:06.405Z,57.80
2022-09-23T02:59:35.630Z,57.80
2022-09-23T03:02:32.452Z,57.80
2022-09-23T03:05:19.030Z,57.90
2022-09-23T03:08:22.250Z,57.90
2022-09-23T03:11:06.241Z,58.00
2022-09-23T03:13:42.943Z,58.00
2022-09-23T03:16:17.172Z,58.10
2022-09-23T03:18:55.791Z,58.20
2022-09-23T03:21:27.891Z,58.20
2022-09-23T03:23:59.506Z,58.30
2022-09-23T03:26:38.679Z,58.40
2022-09-23T03:29:11.766Z,58.50
2022-09-23T03:31:40.140Z,58.50
2022-09-23T03:34:15.706Z,58.60
2022-09-23T03:37:01.513Z,58.60
2022-09-23T03:39:32.013Z,58.60
2022-09-23T03:42:03.523Z,58.50
2022-09-23T03:44:37.811Z,58.60
2022-09-23T03:47:05.022Z,58.60
2022-09-23T03:49:37.257Z,58.80
2022-09-23T03:52:04.178Z,58.80
2022-09-23T03:54:31.400Z,58.80
2022-09-23T03:56:58.875Z,58.90
2022-09-23T03:59:27.150Z,58.90
2022-09-23T04:01:55.557Z,58.80
2022-09-23T04:04:22.485Z,58.90
2022-09-23T04:06:49.322Z,59.00
2022-09-23T04:09:16.274Z,59.10
2022-09-23T04:11:43.093Z,59.10
2022-09-23T04:14:10.445Z,59.00
2022-09-23T04:16:37.360Z,59.00
2022-09-23T04:19:05.082Z,59.10
2022-09-23T04:21:32.692Z,59.10
2022-09-23T04:23:59.644Z,59.20
2022-09-23T04:26:26.555Z,59.20
2022-09-23T04:28:54.661Z,59.20
2022-09-23T04:31:23.867Z,59.20
2022-09-23T04:33:52.916Z,59.30
2022-09-23T04:36:19.979Z,59.30
2022-09-23T04:38:48.647Z,59.30
2022-09-23T04:41:16.646Z,59.30
2022-09-23T04:43:43.783Z,59.40
2022-09-23T04:46:12.969Z,59.40
2022-09-23T04:48:41.534Z,59.40
2022-09-23T04:51:14.420Z,59.40
2022-09-23T04:53:43.237Z,59.40
2022-09-23T04:56:12.484Z,59.40
2022-09-23T04:58:40.765Z,59.40
2022-09-23T05:01:26.974Z,59.40
2022-09-23T05:03:57.368Z,59.50
2022-09-23T05:06:25.224Z,59.50
2022-09-23T05:08:54.494Z,59.50
2022-09-23T05:11:22.338Z,59.40
2022-09-23T05:13:51.290Z,59.40
2022-09-23T05:16:18.860Z,59.50
2022-09-23T05:18:46.715Z,59.60
2022-09-23T05:21:16.446Z,59.60
2022-09-23T05:23:47.017Z,59.60
2022-09-23T05:26:14.480Z,59.50
2022-09-23T05:28:41.353Z,59.60
2022-09-23T05:31:19.362Z,59.50
2022-09-23T05:33:52.517Z,59.50
2022-09-23T05:36:21.402Z,59.50
2022-09-23T05:38:50.269Z,59.50
2022-09-23T05:41:20.074Z,59.60
2022-09-23T05:43:47.431Z,59.50
2022-09-23T05:46:17.317Z,59.50
2022-09-23T05:48:46.101Z,59.50
2022-09-23T05:51:21.380Z,59.40
2022-09-23T05:53:50.276Z,59.60
2022-09-23T05:56:19.828Z,59.50
2022-09-23T05:58:49.421Z,59.50
2022-09-23T06:01:25.940Z,59.50
2022-09-23T06:03:57.673Z,59.50
2022-09-23T06:06:28.916Z,59.60
2022-09-23T06:08:56.395Z,59.50
2022-09-23T06:11:23.371Z,59.50
2022-09-23T06:13:55.528Z,59.50
2022-09-23T06:16:22.615Z,59.50
2022-09-23T06:18:49.750Z,59.50
2022-09-23T06:21:17.450Z,59.50
2022-09-23T06:23:45.560Z,59.50
2022-09-23T06:26:14.972Z,59.50
2022-09-23T06:28:43.987Z,59.50
2022-09-23T06:31:14.031Z,59.60
2022-09-23T06:33:42.966Z,59.60
2022-09-23T06:36:11.291Z,59.60
2022-09-23T06:38:45.338Z,59.70
2022-09-23T06:41:12.468Z,59.80
2022-09-23T06:43:39.455Z,59.70
2022-09-23T06:46:07.515Z,59.60
2022-09-23T06:48:35.382Z,59.60
2022-09-23T06:51:05.139Z,59.50
2022-09-23T06:53:32.319Z,59.50
2022-09-23T06:56:07.559Z,59.60
2022-09-23T06:58:35.910Z,59.50
2022-09-23T07:01:05.727Z,59.40
2022-09-23T07:03:33.169Z,59.30
2022-09-23T07:06:01.010Z,59.30
2022-09-23T07:08:29.886Z,59.30
2022-09-23T07:10:59.415Z,59.30
2022-09-23T07:13:27.099Z,59.30
2022-09-23T07:15:58.260Z,59.30
2022-09-23T07:18:26.972Z,59.20
2022-09-23T07:20:54.730Z,59.10
2022-09-23T07:23:21.607Z,59.20
2022-09-23T07:25:50.332Z,59.20
2022-09-23T07:28:17.940Z,59.10
2022-09-23T07:30:55.091Z,59.00
2022-09-23T07:33:32.087Z,59.10
2022-09-23T07:36:00.188Z,59.20
2022-09-23T07:38:30.450Z,59.30
2022-09-23T07:41:18.073Z,59.20
2022-09-23T07:43:46.214Z,59.30
2022-09-23T07:46:16.733Z,59.20
2022-09-23T07:48:45.778Z,59.30
2022-09-23T07:51:31.908Z,59.20
2022-09-23T07:54:01.955Z,59.20
2022-09-23T07:56:30.170Z,59.10
2022-09-23T07:59:00.551Z,59.10
2022-09-23T08:01:34.211Z,58.70
2022-09-23T08:04:04.055Z,58.70
2022-09-23T08:06:31.205Z,58.60
2022-09-23T08:08:59.872Z,58.30
2022-09-23T08:11:27.635Z,58.20
2022-09-23T08:13:54.830Z,58.20
2022-09-23T08:16:22.094Z,58.10
2022-09-23T08:18:49.259Z,57.90
2022-09-23T08:21:21.185Z,57.80
2022-09-23T08:23:48.414Z,57.70
2022-09-23T08:26:21.255Z,57.60
2022-09-23T08:28:49.895Z,57.60
2022-09-23T08:31:17.072Z,57.40
2022-09-23T08:33:43.874Z,57.30
2022-09-23T08:36:10.663Z,57.20
2022-09-23T08:38:37.623Z,56.90
2022-09-23T08:41:23.574Z,56.80
2022-09-23T08:44:25.141Z,56.40
2022-09-23T08:47:11.807Z,56.30
2022-09-23T08:50:13.030Z,56.00
2022-09-23T08:53:01.939Z,55.80
2022-09-23T08:55:42.004Z,55.60
2022-09-23T08:58:35.258Z,55.40
2022-09-23T09:01:23.036Z,55.20
2022-09-23T09:03:54.035Z,55.00
2022-09-23T09:06:31.003Z,54.80
2022-09-23T09:09:02.317Z,54.50
2022-09-23T09:11:35.542Z,54.60
2022-09-23T09:14:22.784Z,54.60
2022-09-23T09:17:05.253Z,54.50
2022-09-23T09:19:32.403Z,54.60
2022-09-23T09:22:00.837Z,54.50
2022-09-23T09:24:34.346Z,54.30
2022-09-23T09:27:09.034Z,54.10
2022-09-23T09:29:43.513Z,54.30
2022-09-23T09:32:43.972Z,54.30
2022-09-23T09:35:29.298Z,54.10
2022-09-23T09:37:56.159Z,53.90
2022-09-23T09:40:23.003Z,54.00
2022-09-23T09:42:50.588Z,53.80
2022-09-23T09:45:26.552Z,53.90
2022-09-23T09:48:17.760Z,53.70
2022-09-23T09:50:51.858Z,53.50
2022-09-23T09:53:34.634Z,53.60
2022-09-23T09:56:09.912Z,53.40
2022-09-23T09:58:47.773Z,53.00
2022-09-23T10:01:24.971Z,52.90
2022-09-23T10:03:56.941Z,52.80
2022-09-23T10:06:29.308Z,52.60
2022-09-23T10:09:04.863Z,52.40
2022-09-23T10:11:32.908Z,51.90
2022-09-23T10:14:02.611Z,51.70
2022-09-23T10:16:31.918Z,51.40
2022-09-23T10:19:04.173Z,51.30
2022-09-23T10:21:37.034Z,51.00
2022-09-23T10:24:07.053Z,50.90
2022-09-23T10:26:42.125Z,50.70
2022-09-23T10:29:37.022Z,50.60
2022-09-23T10:32:14.712Z,50.70
2022-09-23T10:34:46.617Z,50.90
2022-09-23T10:37:32.870Z,51.10
2022-09-23T10:40:19.642Z,51.20
2022-09-23T10:43:24.260Z,51.20
2022-09-23T10:46:12.568Z,51.00
2022-09-23T10:49:13.249Z,51.00
2022-09-23T10:51:57.663Z,51.00
2022-09-23T10:54:55.106Z,50.90
2022-09-23T10:57:43.272Z,51.10
2022-09-23T11:00:41.215Z,51.20
2022-09-23T11:03:31.730Z,50.90
2022-09-23T11:06:25.215Z,50.50
2022-09-23T11:09:29.028Z,50.60
2022-09-23T11:12:18.024Z,50.40
2022-09-23T11:14:51.575Z,50.30
2022-09-23T11:17:44.784Z,49.80
2022-09-23T11:20:21.837Z,49.60
2022-09-23T11:23:13.078Z,49.90
2022-09-23T11:25:46.642Z,49.60
2022-09-23T11:28:32.268Z,49.20
2022-09-23T11:30:59.168Z,49.20
2022-09-23T11:33:48.882Z,49.20
2022-09-23T11:36:38.023Z,48.80
2022-09-23T11:39:13.023Z,48.20
2022-09-23T11:41:42.278Z,48.50
2022-09-23T11:44:16.981Z,48.40
2022-09-23T11:46:57.887Z,48.30
2022-09-23T11:49:49.555Z,48.00
2022-09-23T11:52:36.719Z,47.80
2022-09-23T11:55:21.995Z,47.60
2022-09-23T11:58:22.649Z,47.60
2022-09-23T12:01:01.188Z,47.40
2022-09-23T12:03:50.873Z,47.60
2022-09-23T12:06:38.724Z,47.50
2022-09-23T12:09:47.081Z,47.50
2022-09-23T12:13:01.751Z,47.50
2022-09-23T12:15:55.623Z,47.80
2022-09-23T12:18:25.516Z,48.00
2022-09-23T12:21:49.041Z,48.10
2022-09-23T12:24:40.102Z,48.00
2022-09-23T12:27:12.095Z,48.20
2022-09-23T12:29:40.564Z,48.20
2022-09-23T12:32:10.214Z,48.30
2022-09-23T12:34:48.971Z,48.40
2022-09-23T12:37:38.333Z,48.50
2022-09-23T12:40:24.015Z,48.50
2022-09-23T12:42:51.789Z,48.50
2022-09-23T12:45:32.037Z,48.30
2022-09-23T12:48:00.022Z,48.00
2022-09-23T12:50:53.529Z,48.10
2022-09-23T12:53:35.353Z,47.90
2022-09-23T12:56:31.371Z,47.90
2022-09-23T12:59:15.963Z,47.90
2022-09-23T13:01:43.687Z,48.10
2022-09-23T13:04:51.481Z,48.10
2022-09-23T13:07:25.362Z,48.10
2022-09-23T13:10:05.815Z,48.30
2022-09-23T13:12:36.102Z,48.30
2022-09-23T13:15:06.310Z,48.40
2022-09-23T13:17:37.422Z,48.70
2022-09-23T13:20:06.585Z,48.90
2022-09-23T13:22:49.877Z,48.90
2022-09-23T13:25:21.942Z,48.90
2022-09-23T13:27:53.995Z,49.20
2022-09-23T13:30:26.334Z,49.40
2022-09-23T13:33:04.444Z,49.60
2022-09-23T13:35:36.711Z,49.60
2022-09-23T13:38:26.265Z,49.70
2022-09-23T13:41:04.692Z,49.80
2022-09-23T13:43:41.679Z,49.90
2022-09-23T13:46:21.266Z,49.90
2022-09-23T13:48:52.492Z,50.00
2022-09-23T13:51:35.010Z,50.10
2022-09-23T13:54:04.028Z,50.40
2022-09-23T13:56:33.620Z,50.40
2022-09-23T13:59:27.939Z,50.70
2022-09-23T14:02:05.132Z,50.90
2022-09-23T14:04:32.105Z,50.90
2022-09-23T14:06:59.068Z,51.00
2022-09-23T14:09:27.905Z,51.00
2022-09-23T14:11:57.617Z,51.30
2022-09-23T14:14:24.891Z,51.30
2022-09-23T14:16:52.257Z,51.40
2022-09-23T14:19:22.606Z,51.50
2022-09-23T14:21:54.325Z,51.60
2022-09-23T14:24:31.929Z,51.70
2022-09-23T14:27:10.876Z,51.90
2022-09-23T14:29:40.721Z,52.20
2022-09-23T14:32:14.337Z,52.50
2022-09-23T14:35:04.498Z,52.80
2022-09-23T14:38:00.697Z,53.10
2022-09-23T14:40:34.183Z,53.20
2022-09-23T14:43:11.209Z,53.30
2022-09-23T14:45:40.771Z,53.50
2022-09-23T14:48:18.479Z,53.70
2022-09-23T14:50:52.261Z,53.90
2022-09-23T14:53:19.099Z,54.10
2022-09-23T14:55:47.733Z,54.30
2022-09-23T14:58:19.995Z,54.40
2022-09-23T15:00:59.445Z,54.60
2022-09-23T15:03:30.736Z,54.70
2022-09-23T15:06:09.041Z,54.80
2022-09-23T15:08:36.913Z,55.10
2022-09-23T15:11:07.998Z,55.10
2022-09-23T15:13:49.418Z,55.30
2022-09-23T15:16:22.811Z,55.60
2022-09-23T15:18:55.702Z,55.80
2022-09-23T15:21:23.284Z,56.00
2022-09-23T15:23:52.576Z,56.10
2022-09-23T15:26:25.200Z,56.30
2022-09-23T15:28:56.053Z,56.50
2022-09-23T15:31:27.112Z,56.60
2022-09-23T15:33:56.035Z,56.90
2022-09-23T15:36:27.861Z,57.10
2022-09-23T15:38:57.376Z,57.40
2022-09-23T15:41:24.463Z,57.50
2022-09-23T15:43:51.730Z,57.80
2022-09-23T15:46:25.916Z,58.10
2022-09-23T15:48:58.889Z,58.50
2022-09-23T15:51:27.542Z,58.50
2022-09-23T15:53:57.746Z,58.70
2022-09-23T15:56:27.052Z,58.80
2022-09-23T15:58:53.941Z,59.20
2022-09-23T16:01:28.123Z,59.40
2022-09-23T16:03:55.676Z,59.70
2022-09-23T16:06:24.362Z,59.90
2022-09-23T16:08:52.276Z,60.40
2022-09-23T16:11:24.733Z,60.60
2022-09-23T16:13:51.924Z,60.70
2022-09-23T16:16:22.570Z,60.80
2022-09-23T16:18:51.352Z,61.00
2022-09-23T16:21:21.309Z,61.20
2022-09-23T16:23:50.090Z,61.40
2022-09-23T16:26:31.111Z,61.60
2022-09-23T16:28:58.976Z,61.90
2022-09-23T16:31:29.726Z,62.10
2022-09-23T16:33:57.235Z,62.10
2022-09-23T16:36:33.528Z,62.30
2022-09-23T16:39:04.049Z,62.60
2022-09-23T16:41:31.593Z,62.80
2022-09-23T16:44:04.615Z,62.90
2022-09-23T16:46:32.222Z,63.10
2022-09-23T16:49:00.447Z,63.30
2022-09-23T16:51:38.666Z,63.40
2022-09-23T16:54:10.517Z,63.50
2022-09-23T16:56:41.874Z,63.60
2022-09-23T16:59:09.149Z,63.80
2022-09-23T17:01:55.967Z,64.10
2022-09-23T17:04:23.170Z,64.30
2022-09-23T17:06:51.624Z,64.40
2022-09-23T17:09:29.218Z,64.50
2022-09-23T17:12:11.376Z,64.40
2022-09-23T17:14:38.432Z,64.60
2022-09-23T17:17:06.540Z,64.60
2022-09-23T17:19:34.528Z,64.70
2022-09-23T17:22:01.443Z,64.90
2022-09-23T17:24:28.666Z,65.00
2022-09-23T17:26:55.440Z,65.10
2022-09-23T17:29:26.935Z,65.00
2022-09-23T17:31:54.212Z,65.10
2022-09-23T17:34:21.611Z,65.10
2022-09-23T17:36:49.652Z,65.20
2022-09-23T17:39:22.381Z,65.50
2022-09-23T17:41:49.535Z,65.60
2022-09-23T17:44:18.703Z,65.70
2022-09-23T17:46:45.687Z,65.90
2022-09-23T17:49:12.795Z,65.90
2022-09-23T17:51:39.739Z,65.90
2022-09-23T17:54:07.794Z,66.00
2022-09-23T17:56:35.180Z,66.10
2022-09-23T17:59:02.911Z,66.10
2022-09-23T18:01:30.299Z,66.10
2022-09-23T18:03:59.166Z,66.20
2022-09-23T18:06:33.795Z,66.30
2022-09-23T18:09:04.126Z,66.30
2022-09-23T18:11:39.985Z,66.30
2022-09-23T18:14:12.940Z,66.40
2022-09-23T18:16:41.514Z,66.40
2022-09-23T18:19:12.391Z,66.30
2022-09-23T18:21:43.450Z,66.40
2022-09-23T18:27:00.225Z,66.50
2022-09-23T18:29:27.386Z,66.50
2022-09-23T18:31:54.423Z,66.60
2022-09-23T18:34:22.219Z,66.60
2022-09-23T18:36:49.561Z,66.60
2022-09-23T18:39:18.658Z,66.70
2022-09-23T18:41:45.968Z,66.80
2022-09-23T18:44:12.781Z,66.90
2022-09-23T18:46:39.754Z,66.80
2022-09-23T18:49:25.415Z,66.80
2022-09-23T18:51:55.732Z,67.00
2022-09-23T18:54:24.794Z,67.10
2022-09-23T18:56:52.919Z,67.20
2022-09-23T18:59:25.195Z,67.30
2022-09-23T19:01:55.458Z,67.30
2022-09-23T19:04:24.580Z,67.30
2022-09-23T19:06:51.825Z,67.50
2022-09-23T19:09:22.182Z,67.60
2022-09-23T19:11:52.815Z,67.70
2022-09-23T19:14:20.868Z,67.80
2022-09-23T19:16:49.179Z,67.90
2022-09-23T19:19:17.053Z,67.90
2022-09-23T19:21:43.975Z,67.90
2022-09-23T19:24:15.631Z,67.90
2022-09-23T19:26:43.288Z,68.00
2022-09-23T19:29:15.072Z,68.00
2022-09-23T19:31:43.501Z,68.10
2022-09-23T19:34:19.803Z,68.00
2022-09-23T19:36:48.242Z,68.00
2022-09-23T19:39:21.090Z,68.10
2022-09-23T19:41:49.065Z,68.30
2022-09-23T19:44:16.714Z,68.40
2022-09-23T19:46:45.818Z,68.30
2022-09-23T19:49:13.365Z,68.50
2022-09-23T19:51:40.401Z,68.50
2022-09-23T19:54:09.432Z,68.60
2022-09-23T19:56:37.653Z,68.60
2022-09-23T19:59:07.434Z,68.70
2022-09-23T20:01:34.941Z,68.70
2022-09-23T20:04:02.261Z,68.80
2022-09-23T20:06:30.879Z,68.80
2022-09-23T20:08:59.569Z,69.00
2022-09-23T20:11:28.783Z,69.00
2022-09-23T20:14:01.823Z,69.10
2022-09-23T20:16:32.474Z,69.30
2022-09-23T20:19:00.949Z,69.30
2022-09-23T20:21:29.454Z,69.40
2022-09-23T20:23:57.886Z,69.40
2022-09-23T20:26:44.130Z,69.60
2022-09-23T20:29:11.391Z,69.80
2022-09-23T20:31:40.350Z,69.80
2022-09-23T20:34:08.592Z,69.90
2022-09-23T20:36:36.238Z,69.90
2022-09-23T20:39:07.869Z,69.90
2022-09-23T20:41:38.163Z,70.00
2022-09-23T20:44:10.395Z,70.00
2022-09-23T20:46:37.754Z,70.10
2022-09-23T20:49:07.934Z,70.10
2022-09-23T20:51:38.202Z,70.10
2022-09-23T20:54:05.381Z,70.10
2022-09-23T20:56:32.250Z,70.00
2022-09-23T20:59:00.576Z,70.00
2022-09-23T21:01:27.810Z,70.00
2022-09-23T21:03:56.111Z,69.80
2022-09-23T21:06:26.296Z,69.90
2022-09-23T21:08:54.623Z,70.00
2022-09-23T21:11:26.278Z,70.00
2022-09-23T21:13:53.241Z,70.00
2022-09-23T21:16:25.475Z,70.00
2022-09-23T21:18:53.135Z,70.00
2022-09-23T21:21:22.817Z,70.10
2022-09-23T21:23:50.574Z,70.00
2022-09-23T21:26:23.482Z,70.00
2022-09-23T21:28:52.725Z,70.10
2022-09-23T21:31:33.956Z,70.20
2022-09-23T21:34:05.853Z,70.20
2022-09-23T21:36:34.891Z,70.30
2022-09-23T21:39:02.987Z,70.30
2022-09-23T21:41:30.466Z,70.40
2022-09-23T21:43:57.899Z,70.40
2022-09-23T21:46:25.973Z,70.50
2022-09-23T21:48:55.121Z,70.40
2022-09-23T21:51:37.753Z,70.50
2022-09-23T21:54:06.169Z,70.60
2022-09-23T21:56:36.456Z,70.60
2022-09-23T21:59:05.021Z,70.80
2022-09-23T22:01:35.372Z,70.90
2022-09-23T22:04:14.934Z,70.90
2022-09-23T22:06:41.986Z,70.80
2022-09-23T22:09:14.855Z,70.80
2022-09-23T22:12:01.057Z,70.90
2022-09-23T22:14:28.320Z,70.90
2022-09-23T22:16:57.394Z,70.90
2022-09-23T22:19:27.024Z,71.10
2022-09-23T22:21:55.822Z,71.20
2022-09-23T22:24:23.116Z,71.40
2022-09-23T22:26:50.203Z,71.60
2022-09-23T22:29:36.154Z,71.70
2022-09-23T22:32:23.310Z,71.70
2022-09-23T22:34:52.168Z,71.70
2022-09-23T22:37:38.809Z,71.90
2022-09-23T22:40:14.469Z,72.10
2022-09-23T22:42:42.660Z,72.10
2022-09-23T22:45:11.158Z,72.10
2022-09-23T22:47:40.431Z,72.20
2022-09-23T22:50:09.120Z,72.30
2022-09-23T22:52:36.442Z,72.40
2022-09-23T22:55:03.911Z,72.40
2022-09-23T22:57:31.504Z,72.40
2022-09-23T22:59:58.565Z,72.50
2022-09-23T23:02:25.504Z,72.50
2022-09-23T23:04:52.493Z,72.80
2022-09-23T23:07:21.237Z,72.70
2022-09-23T23:09:52.238Z,72.90
2022-09-23T23:12:20.357Z,72.90
2022-09-23T23:14:48.862Z,72.80
2022-09-23T23:17:15.907Z,72.90
2022-09-23T23:19:42.842Z,72.90
2022-09-23T23:22:09.961Z,72.90
2022-09-23T23:24:36.943Z,72.90
2022-09-23T23:27:03.816Z,72.90
2022-09-23T23:29:30.777Z,73.00
2022-09-23T23:31:57.551Z,73.00
2022-09-23T23:34:24.521Z,73.00
2022-09-23T23:36:54.696Z,73.20
2022-09-23T23:39:23.889Z,73.30
2022-09-23T23:41:55.625Z,73.50
2022-09-23T23:44:24.640Z,73.50
2022-09-23T23:46:52.252Z,73.50
2022-09-23T23:49:19.571Z,73.50
2022-09-23T23:51:47.964Z,73.50
2022-09-23T23:54:15.502Z,73.60
2022-09-23T23:56:42.744Z,73.50
2022-09-23T23:59:09.780Z,73.40
